Petah Tiqwa, Israel
Current Conditions -  °F | °C
As of 8:50 AM on Saturday 25 Oct 2014 (Local Time) from LLSD Reporting Station
Clear Clear  
Wind Chill: 72°   Ceiling: Unl
Heat Index: 72°   Visibility: 6mi
Dew Point: 54°   Wind: 6mph
Humidity: 53%   Direction: 90°E
Pressure: 29.97"   Gusts: NA
Location:  32.09°N, 34.88°E
Report Text: LLSD 250550Z 09005KT 050V130 CAVOK 22/12 Q1015
Loading
Personal Weather Stations






























Interactive Weather Map
Tropical Storm Tracking
New forecast layout! Learn more

10-Day Weather Forecast

Advertisements
Track Severe Weather on mobile